sensor_id;sensor_type;location;lat;lon;timestamp;temperature;humidity
41168;DHT22;26906;45.658;9.272;2023-05-07T06:36:35;20.20;99.90
41168;DHT22;26906;45.658;9.272;2023-05-07T06:39:08;20.30;99.90
41168;DHT22;26906;45.658;9.272;2023-05-07T06:41:35;20.30;99.90
41168;DHT22;26906;45.658;9.272;2023-05-07T06:44:06;20.40;99.90
41168;DHT22;26906;45.658;9.272;2023-05-07T06:46:38;20.40;99.90
41168;DHT22;26906;45.658;9.272;2023-05-07T06:49:05;20.40;99.90
41168;DHT22;26906;45.658;9.272;2023-05-07T06:51:31;20.60;99.90
41168;DHT22;26906;45.658;9.272;2023-05-07T06:54:01;20.70;99.90
41168;DHT22;26906;45.658;9.272;2023-05-07T06:56:27;20.80;99.90
41168;DHT22;26906;45.658;9.272;2023-05-07T06:58:53;20.90;99.90
41168;DHT22;26906;45.658;9.272;2023-05-07T07:01:20;20.90;99.90
41168;DHT22;26906;45.658;9.272;2023-05-07T07:03:46;21.00;99.90
41168;DHT22;26906;45.658;9.272;2023-05-07T07:06:12;21.10;99.90
41168;DHT22;26906;45.658;9.272;2023-05-07T07:08:39;21.10;99.90
41168;DHT22;26906;45.658;9.272;2023-05-07T07:11:06;21.10;99.90
41168;DHT22;26906;45.658;9.272;2023-05-07T07:13:32;21.10;99.90
41168;DHT22;26906;45.658;9.272;2023-05-07T07:15:59;21.10;99.90
41168;DHT22;26906;45.658;9.272;2023-05-07T07:18:25;21.20;99.90
41168;DHT22;26906;45.658;9.272;2023-05-07T07:20:53;21.20;99.90
41168;DHT22;26906;45.658;9.272;2023-05-07T07:23:20;21.20;99.90
41168;DHT22;26906;45.658;9.272;2023-05-07T07:25:46;21.30;99.90
41168;DHT22;26906;45.658;9.272;2023-05-07T07:28:12;21.40;99.90
41168;DHT22;26906;45.658;9.272;2023-05-07T07:30:39;21.50;99.90
41168;DHT22;26906;45.658;9.272;2023-05-07T07:33:05;21.60;99.90
41168;DHT22;26906;45.658;9.272;2023-05-07T07:35:34;21.70;99.90
41168;DHT22;26906;45.658;9.272;2023-05-07T07:38:01;21.80;99.90
41168;DHT22;26906;45.658;9.272;2023-05-07T07:40:28;21.90;99.90
41168;DHT22;26906;45.658;9.272;2023-05-07T07:42:56;22.10;99.90
41168;DHT22;26906;45.658;9.272;2023-05-07T07:45:22;22.20;99.90
41168;DHT22;26906;45.658;9.272;2023-05-07T07:47:50;22.60;99.90
41168;DHT22;26906;45.658;9.272;2023-05-07T07:50:15;23.00;99.90
41168;DHT22;26906;45.658;9.272;2023-05-07T07:52:42;23.20;99.90
41168;DHT22;26906;45.658;9.272;2023-05-07T07:55:09;23.60;99.90
41168;DHT22;26906;45.658;9.272;2023-05-07T07:57:36;23.80;99.90
41168;DHT22;26906;45.658;9.272;2023-05-07T08:00:02;24.00;99.90
41168;DHT22;26906;45.658;9.272;2023-05-07T08:02:30;24.30;99.90
41168;DHT22;26906;45.658;9.272;2023-05-07T08:04:56;24.40;99.90
41168;DHT22;26906;45.658;9.272;2023-05-07T08:07:22;24.40;99.90
41168;DHT22;26906;45.658;9.272;2023-05-07T08:09:48;24.70;99.90
41168;DHT22;26906;45.658;9.272;2023-05-07T08:12:17;24.90;99.90
41168;DHT22;26906;45.658;9.272;2023-05-07T08:14:43;25.30;99.90
41168;DHT22;26906;45.658;9.272;2023-05-07T08:17:09;25.40;99.90
41168;DHT22;26906;45.658;9.272;2023-05-07T08:19:36;25.50;99.90
41168;DHT22;26906;45.658;9.272;2023-05-07T08:22:03;25.30;99.90
41168;DHT22;26906;45.658;9.272;2023-05-07T08:24:33;25.40;99.90
41168;DHT22;26906;45.658;9.272;2023-05-07T08:26:59;25.60;99.90
41168;DHT22;26906;45.658;9.272;2023-05-07T08:29:25;26.00;99.90
41168;DHT22;26906;45.658;9.272;2023-05-07T08:31:51;26.10;99.90
41168;DHT22;26906;45.658;9.272;2023-05-07T08:34:17;26.20;99.90
41168;DHT22;26906;45.658;9.272;2023-05-07T08:36:45;26.20;99.90
41168;DHT22;26906;45.658;9.272;2023-05-07T08:39:16;26.20;99.90
41168;DHT22;26906;45.658;9.272;2023-05-07T08:41:48;26.10;99.90
41168;DHT22;26906;45.658;9.272;2023-05-07T08:44:14;26.20;99.90
41168;DHT22;26906;45.658;9.272;2023-05-07T08:46:42;26.40;99.90
41168;DHT22;26906;45.658;9.272;2023-05-07T08:49:12;26.40;99.90
41168;DHT22;26906;45.658;9.272;2023-05-07T08:51:38;26.40;99.90
41168;DHT22;26906;45.658;9.272;2023-05-07T08:54:04;26.40;99.90
41168;DHT22;26906;45.658;9.272;2023-05-07T08:56:32;26.60;99.90
41168;DHT22;26906;45.658;9.272;2023-05-07T08:58:58;26.80;99.90
41168;DHT22;26906;45.658;9.272;2023-05-07T09:01:26;27.00;99.90
41168;DHT22;26906;45.658;9.272;2023-05-07T09:03:54;26.90;99.90
41168;DHT22;26906;45.658;9.272;2023-05-07T09:06:21;27.00;99.90
41168;DHT22;26906;45.658;9.272;2023-05-07T09:08:51;26.60;99.90
41168;DHT22;26906;45.658;9.272;2023-05-07T09:11:24;26.50;99.90
41168;DHT22;26906;45.658;9.272;2023-05-07T09:13:55;26.50;99.90
41168;DHT22;26906;45.658;9.272;2023-05-07T09:16:24;26.60;99.90
41168;DHT22;26906;45.658;9.272;2023-05-07T09:18:54;26.80;99.90
41168;DHT22;26906;45.658;9.272;2023-05-07T09:21:21;26.80;99.90
41168;DHT22;26906;45.658;9.272;2023-05-07T09:23:54;26.80;99.90
41168;DHT22;26906;45.658;9.272;2023-05-07T09:26:23;27.00;99.90
41168;DHT22;26906;45.658;9.272;2023-05-07T09:28:49;26.90;99.90
41168;DHT22;26906;45.658;9.272;2023-05-07T09:31:15;26.70;99.90
41168;DHT22;26906;45.658;9.272;2023-05-07T09:33:42;27.00;99.90
41168;DHT22;26906;45.658;9.272;2023-05-07T09:36:10;27.30;99.90
41168;DHT22;26906;45.658;9.272;2023-05-07T09:38:39;27.40;99.90
41168;DHT22;26906;45.658;9.272;2023-05-07T09:41:10;27.50;99.90
41168;DHT22;26906;45.658;9.272;2023-05-07T09:44:02;27.50;99.90
41168;DHT22;26906;45.658;9.272;2023-05-07T09:46:36;27.50;99.90
41168;DHT22;26906;45.658;9.272;2023-05-07T09:49:12;27.40;99.90
41168;DHT22;26906;45.658;9.272;2023-05-07T09:51:49;27.30;99.90
41168;DHT22;26906;45.658;9.272;2023-05-07T09:54:19;27.50;99.90
41168;DHT22;26906;45.658;9.272;2023-05-07T09:56:52;27.70;99.90
41168;DHT22;26906;45.658;9.272;2023-05-07T09:59:20;27.90;99.90
41168;DHT22;26906;45.658;9.272;2023-05-07T10:01:48;28.10;99.90
41168;DHT22;26906;45.658;9.272;2023-05-07T10:04:15;28.20;99.90
41168;DHT22;26906;45.658;9.272;2023-05-07T10:06:43;28.20;99.90
41168;DHT22;26906;45.658;9.272;2023-05-07T10:09:10;28.10;99.90
41168;DHT22;26906;45.658;9.272;2023-05-07T10:11:37;28.00;99.90
41168;DHT22;26906;45.658;9.272;2023-05-07T10:14:04;27.90;99.90
41168;DHT22;26906;45.658;9.272;2023-05-07T10:16:35;27.70;99.90
41168;DHT22;26906;45.658;9.272;2023-05-07T10:19:04;27.80;99.90
41168;DHT22;26906;45.658;9.272;2023-05-07T10:21:37;27.70;99.90
41168;DHT22;26906;45.658;9.272;2023-05-07T10:24:05;27.70;99.90
41168;DHT22;26906;45.658;9.272;2023-05-07T10:26:47;28.00;99.90
41168;DHT22;26906;45.658;9.272;2023-05-07T10:29:21;28.00;99.90
41168;DHT22;26906;45.658;9.272;2023-05-07T10:34:42;28.10;99.90
41168;DHT22;26906;45.658;9.272;2023-05-07T10:37:09;27.90;99.90
41168;DHT22;26906;45.658;9.272;2023-05-07T10:39:36;27.90;99.90
41168;DHT22;26906;45.658;9.272;2023-05-07T10:42:13;27.90;99.90
41168;DHT22;26906;45.658;9.272;2023-05-07T10:44:46;28.00;99.90
41168;DHT22;26906;45.658;9.272;2023-05-07T10:47:20;28.10;99.90
41168;DHT22;26906;45.658;9.272;2023-05-07T10:50:19;28.20;99.90
41168;DHT22;26906;45.658;9.272;2023-05-07T10:52:39;28.30;99.90
41168;DHT22;26906;45.658;9.272;2023-05-07T10:57:56;28.20;99.90
41168;DHT22;26906;45.658;9.272;2023-05-07T11:00:42;28.40;99.90
41168;DHT22;26906;45.658;9.272;2023-05-07T11:03:13;28.30;99.90
41168;DHT22;26906;45.658;9.272;2023-05-07T11:06:09;28.40;99.90
41168;DHT22;26906;45.658;9.272;2023-05-07T11:08:58;28.60;99.90
41168;DHT22;26906;45.658;9.272;2023-05-07T11:11:48;28.70;99.90
41168;DHT22;26906;45.658;9.272;2023-05-07T11:14:48;28.90;99.90
41168;DHT22;26906;45.658;9.272;2023-05-07T11:17:33;29.20;99.90
41168;DHT22;26906;45.658;9.272;2023-05-07T11:20:05;28.90;99.90
41168;DHT22;26906;45.658;9.272;2023-05-07T11:22:53;29.30;99.90
41168;DHT22;26906;45.658;9.272;2023-05-07T11:25:30;29.40;99.90
41168;DHT22;26906;45.658;9.272;2023-05-07T11:28:13;29.00;99.90
41168;DHT22;26906;45.658;9.272;2023-05-07T11:30:45;29.00;99.90
41168;DHT22;26906;45.658;9.272;2023-05-07T11:33:17;29.20;99.90
41168;DHT22;26906;45.658;9.272;2023-05-07T11:35:44;29.10;99.90
41168;DHT22;26906;45.658;9.272;2023-05-07T11:38:13;29.30;99.90
41168;DHT22;26906;45.658;9.272;2023-05-07T11:40:54;29.50;99.90
41168;DHT22;26906;45.658;9.272;2023-05-07T11:43:35;29.40;99.90
41168;DHT22;26906;45.658;9.272;2023-05-07T11:46:09;29.70;99.90
41168;DHT22;26906;45.658;9.272;2023-05-07T11:48:35;29.30;99.90
41168;DHT22;26906;45.658;9.272;2023-05-07T11:51:05;28.90;99.90
41168;DHT22;26906;45.658;9.272;2023-05-07T11:53:39;29.30;99.90
41168;DHT22;26906;45.658;9.272;2023-05-07T11:56:11;29.80;99.90
41168;DHT22;26906;45.658;9.272;2023-05-07T11:58:37;29.80;99.90
41168;DHT22;26906;45.658;9.272;2023-05-07T12:01:02;30.00;99.90
41168;DHT22;26906;45.658;9.272;2023-05-07T12:03:28;30.20;99.90
41168;DHT22;26906;45.658;9.272;2023-05-07T12:05:55;30.40;99.90
41168;DHT22;26906;45.658;9.272;2023-05-07T12:08:22;30.50;99.90
41168;DHT22;26906;45.658;9.272;2023-05-07T12:10:51;30.20;99.90
41168;DHT22;26906;45.658;9.272;2023-05-07T12:13:25;30.00;99.90
41168;DHT22;26906;45.658;9.272;2023-05-07T12:15:55;29.90;99.90
41168;DHT22;26906;45.658;9.272;2023-05-07T12:18:22;29.80;99.90
41168;DHT22;26906;45.658;9.272;2023-05-07T12:20:49;29.80;99.90
41168;DHT22;26906;45.658;9.272;2023-05-07T12:23:15;29.80;99.90
41168;DHT22;26906;45.658;9.272;2023-05-07T12:25:42;30.00;99.90
41168;DHT22;26906;45.658;9.272;2023-05-07T12:28:14;29.90;99.90
41168;DHT22;26906;45.658;9.272;2023-05-07T12:30:45;29.90;99.90
41168;DHT22;26906;45.658;9.272;2023-05-07T12:33:34;29.80;99.90
41168;DHT22;26906;45.658;9.272;2023-05-07T12:36:03;29.70;99.90
41168;DHT22;26906;45.658;9.272;2023-05-07T12:38:36;29.60;99.90
41168;DHT22;26906;45.658;9.272;2023-05-07T12:41:02;29.50;99.90
41168;DHT22;26906;45.658;9.272;2023-05-07T12:43:29;29.30;99.90
41168;DHT22;26906;45.658;9.272;2023-05-07T12:46:06;29.10;99.90
41168;DHT22;26906;45.658;9.272;2023-05-07T12:48:32;29.10;99.90
41168;DHT22;26906;45.658;9.272;2023-05-07T12:51:00;28.80;99.90
41168;DHT22;26906;45.658;9.272;2023-05-07T12:53:27;28.70;99.90
41168;DHT22;26906;45.658;9.272;2023-05-07T12:55:57;28.80;99.90
41168;DHT22;26906;45.658;9.272;2023-05-07T12:58:29;28.80;99.90
41168;DHT22;26906;45.658;9.272;2023-05-07T13:00:56;28.80;99.90
41168;DHT22;26906;45.658;9.272;2023-05-07T13:03:27;28.80;99.90
41168;DHT22;26906;45.658;9.272;2023-05-07T13:05:55;28.70;99.90
41168;DHT22;26906;45.658;9.272;2023-05-07T13:10:55;28.90;99.90
41168;DHT22;26906;45.658;9.272;2023-05-07T13:13:22;28.90;99.90
41168;DHT22;26906;45.658;9.272;2023-05-07T13:15:48;28.80;99.90
41168;DHT22;26906;45.658;9.272;2023-05-07T13:18:14;28.90;99.90
41168;DHT22;26906;45.658;9.272;2023-05-07T13:20:40;29.00;99.90
41168;DHT22;26906;45.658;9.272;2023-05-07T13:23:06;29.40;99.90
41168;DHT22;26906;45.658;9.272;2023-05-07T13:25:31;29.90;99.90
41168;DHT22;26906;45.658;9.272;2023-05-07T13:27:57;30.10;99.90
41168;DHT22;26906;45.658;9.272;2023-05-07T13:30:23;30.30;99.90
41168;DHT22;26906;45.658;9.272;2023-05-07T13:32:49;30.80;99.90
41168;DHT22;26906;45.658;9.272;2023-05-07T13:35:16;31.10;99.90
41168;DHT22;26906;45.658;9.272;2023-05-07T13:37:43;31.10;99.90
41168;DHT22;26906;45.658;9.272;2023-05-07T13:40:09;30.80;99.90
41168;DHT22;26906;45.658;9.272;2023-05-07T13:42:35;30.60;99.90
41168;DHT22;26906;45.658;9.272;2023-05-07T13:45:01;30.80;99.90
41168;DHT22;26906;45.658;9.272;2023-05-07T13:47:30;30.90;99.90
41168;DHT22;26906;45.658;9.272;2023-05-07T13:49:56;30.60;99.90
41168;DHT22;26906;45.658;9.272;2023-05-07T13:52:21;30.60;99.90
41168;DHT22;26906;45.658;9.272;2023-05-07T13:54:47;30.60;99.90
41168;DHT22;26906;45.658;9.272;2023-05-07T13:57:14;30.60;99.90
41168;DHT22;26906;45.658;9.272;2023-05-07T13:59:40;30.80;99.90
41168;DHT22;26906;45.658;9.272;2023-05-07T14:02:07;30.80;99.90
41168;DHT22;26906;45.658;9.272;2023-05-07T14:04:37;30.90;99.90
41168;DHT22;26906;45.658;9.272;2023-05-07T14:07:03;30.80;99.90
41168;DHT22;26906;45.658;9.272;2023-05-07T14:09:30;30.70;99.90
41168;DHT22;26906;45.658;9.272;2023-05-07T14:11:56;30.60;99.90
41168;DHT22;26906;45.658;9.272;2023-05-07T14:14:23;30.30;99.90
41168;DHT22;26906;45.658;9.272;2023-05-07T14:16:49;30.30;99.90
41168;DHT22;26906;45.658;9.272;2023-05-07T14:19:14;30.50;99.90
41168;DHT22;26906;45.658;9.272;2023-05-07T14:21:40;30.50;99.90
41168;DHT22;26906;45.658;9.272;2023-05-07T14:24:07;30.60;99.90
41168;DHT22;26906;45.658;9.272;2023-05-07T14:26:34;30.50;99.90
41168;DHT22;26906;45.658;9.272;2023-05-07T14:29:00;30.40;99.90
41168;DHT22;26906;45.658;9.272;2023-05-07T14:31:27;30.30;99.90
41168;DHT22;26906;45.658;9.272;2023-05-07T14:33:53;30.20;99.90
41168;DHT22;26906;45.658;9.272;2023-05-07T14:36:19;30.30;99.90
41168;DHT22;26906;45.658;9.272;2023-05-07T14:38:52;30.20;99.90
41168;DHT22;26906;45.658;9.272;2023-05-07T14:41:18;30.10;99.90
41168;DHT22;26906;45.658;9.272;2023-05-07T14:43:44;30.00;99.90
41168;DHT22;26906;45.658;9.272;2023-05-07T14:46:17;29.90;99.90
41168;DHT22;26906;45.658;9.272;2023-05-07T14:48:44;30.00;99.90
41168;DHT22;26906;45.658;9.272;2023-05-07T14:51:10;30.20;99.90
41168;DHT22;26906;45.658;9.272;2023-05-07T14:53:36;30.40;99.90
41168;DHT22;26906;45.658;9.272;2023-05-07T14:56:02;30.30;99.90
41168;DHT22;26906;45.658;9.272;2023-05-07T14:58:29;30.10;99.90
41168;DHT22;26906;45.658;9.272;2023-05-07T15:00:55;29.80;99.90
41168;DHT22;26906;45.658;9.272;2023-05-07T15:03:21;29.60;99.90
41168;DHT22;26906;45.658;9.272;2023-05-07T15:05:47;29.60;99.90
41168;DHT22;26906;45.658;9.272;2023-05-07T15:08:18;29.50;99.90
41168;DHT22;26906;45.658;9.272;2023-05-07T15:10:43;29.40;99.90
41168;DHT22;26906;45.658;9.272;2023-05-07T15:13:11;29.20;99.90
41168;DHT22;26906;45.658;9.272;2023-05-07T15:15:38;29.00;99.90
41168;DHT22;26906;45.658;9.272;2023-05-07T15:18:05;29.00;99.90
41168;DHT22;26906;45.658;9.272;2023-05-07T15:20:30;28.90;99.90
41168;DHT22;26906;45.658;9.272;2023-05-07T15:22:58;28.80;99.90
41168;DHT22;26906;45.658;9.272;2023-05-07T15:25:24;28.70;99.90
41168;DHT22;26906;45.658;9.272;2023-05-07T15:27:50;28.50;99.90
41168;DHT22;26906;45.658;9.272;2023-05-07T15:30:17;28.50;99.90
41168;DHT22;26906;45.658;9.272;2023-05-07T15:32:45;28.60;99.90
41168;DHT22;26906;45.658;9.272;2023-05-07T15:35:11;28.90;99.90
41168;DHT22;26906;45.658;9.272;2023-05-07T15:37:36;29.00;99.90
41168;DHT22;26906;45.658;9.272;2023-05-07T15:40:02;29.00;99.90
41168;DHT22;26906;45.658;9.272;2023-05-07T15:42:30;28.90;99.90
41168;DHT22;26906;45.658;9.272;2023-05-07T15:44:56;28.90;99.90
41168;DHT22;26906;45.658;9.272;2023-05-07T15:47:22;28.90;99.90
41168;DHT22;26906;45.658;9.272;2023-05-07T15:49:49;28.90;99.90
41168;DHT22;26906;45.658;9.272;2023-05-07T15:52:15;28.90;99.90
41168;DHT22;26906;45.658;9.272;2023-05-07T15:54:43;29.00;99.90
41168;DHT22;26906;45.658;9.272;2023-05-07T15:57:08;29.00;99.90
41168;DHT22;26906;45.658;9.272;2023-05-07T15:59:36;29.00;99.90
41168;DHT22;26906;45.658;9.272;2023-05-07T16:02:02;28.90;99.90
41168;DHT22;26906;45.658;9.272;2023-05-07T16:04:28;28.80;99.90
41168;DHT22;26906;45.658;9.272;2023-05-07T16:06:55;28.80;99.90
41168;DHT22;26906;45.658;9.272;2023-05-07T16:09:21;28.60;99.90
41168;DHT22;26906;45.658;9.272;2023-05-07T16:11:50;28.60;99.90
41168;DHT22;26906;45.658;9.272;2023-05-07T16:14:16;28.50;99.90
41168;DHT22;26906;45.658;9.272;2023-05-07T16:16:41;28.50;99.90
41168;DHT22;26906;45.658;9.272;2023-05-07T16:19:07;28.40;99.90
41168;DHT22;26906;45.658;9.272;2023-05-07T16:21:34;28.30;99.90
41168;DHT22;26906;45.658;9.272;2023-05-07T16:24:01;28.30;99.90
41168;DHT22;26906;45.658;9.272;2023-05-07T16:26:26;28.20;99.90
41168;DHT22;26906;45.658;9.272;2023-05-07T16:28:52;28.10;99.90
41168;DHT22;26906;45.658;9.272;2023-05-07T16:31:18;28.00;99.90
41168;DHT22;26906;45.658;9.272;2023-05-07T16:33:44;28.00;99.90
41168;DHT22;26906;45.658;9.272;2023-05-07T16:36:10;27.90;99.90
41168;DHT22;26906;45.658;9.272;2023-05-07T16:38:35;27.80;99.90
41168;DHT22;26906;45.658;9.272;2023-05-07T16:41:01;27.70;99.90
41168;DHT22;26906;45.658;9.272;2023-05-07T16:43:27;27.60;99.90
41168;DHT22;26906;45.658;9.272;2023-05-07T16:45:53;27.50;99.90
41168;DHT22;26906;45.658;9.272;2023-05-07T16:48:19;27.40;99.90
41168;DHT22;26906;45.658;9.272;2023-05-07T16:50:46;27.30;99.90
41168;DHT22;26906;45.658;9.272;2023-05-07T16:53:12;27.20;99.90
41168;DHT22;26906;45.658;9.272;2023-05-07T16:55:38;27.20;99.90
41168;DHT22;26906;45.658;9.272;2023-05-07T16:58:08;27.00;99.90
41168;DHT22;26906;45.658;9.272;2023-05-07T17:00:35;26.90;99.90
41168;DHT22;26906;45.658;9.272;2023-05-07T17:03:04;26.90;99.90
41168;DHT22;26906;45.658;9.272;2023-05-07T17:05:30;26.70;99.90
41168;DHT22;26906;45.658;9.272;2023-05-07T17:07:56;26.80;99.90
41168;DHT22;26906;45.658;9.272;2023-05-07T17:10:23;26.80;99.90
41168;DHT22;26906;45.658;9.272;2023-05-07T17:12:50;26.70;99.90
41168;DHT22;26906;45.658;9.272;2023-05-07T17:15:16;26.70;99.90
41168;DHT22;26906;45.658;9.272;2023-05-07T17:17:41;26.60;99.90
41168;DHT22;26906;45.658;9.272;2023-05-07T17:20:07;26.60;99.90
41168;DHT22;26906;45.658;9.272;2023-05-07T17:22:33;26.50;99.90
41168;DHT22;26906;45.658;9.272;2023-05-07T17:24:59;26.50;99.90
41168;DHT22;26906;45.658;9.272;2023-05-07T17:27:26;26.40;99.90
41168;DHT22;26906;45.658;9.272;2023-05-07T17:29:53;26.30;99.90
41168;DHT22;26906;45.658;9.272;2023-05-07T17:32:18;26.20;99.90
41168;DHT22;26906;45.658;9.272;2023-05-07T17:34:44;26.10;99.90
41168;DHT22;26906;45.658;9.272;2023-05-07T17:37:11;26.10;99.90
41168;DHT22;26906;45.658;9.272;2023-05-07T17:39:37;26.00;99.90
41168;DHT22;26906;45.658;9.272;2023-05-07T17:42:02;26.00;99.90
41168;DHT22;26906;45.658;9.272;2023-05-07T17:44:30;26.00;99.90
41168;DHT22;26906;45.658;9.272;2023-05-07T17:47:07;25.90;99.90
41168;DHT22;26906;45.658;9.272;2023-05-07T17:49:33;25.90;99.90
41168;DHT22;26906;45.658;9.272;2023-05-07T17:52:00;25.90;99.90
41168;DHT22;26906;45.658;9.272;2023-05-07T17:54:28;25.90;99.90
41168;DHT22;26906;45.658;9.272;2023-05-07T17:56:54;25.90;99.90
41168;DHT22;26906;45.658;9.272;2023-05-07T17:59:20;25.90;99.90
41168;DHT22;26906;45.658;9.272;2023-05-07T18:01:46;25.80;99.90
41168;DHT22;26906;45.658;9.272;2023-05-07T18:04:12;25.90;99.90
41168;DHT22;26906;45.658;9.272;2023-05-07T18:06:40;25.80;99.90
41168;DHT22;26906;45.658;9.272;2023-05-07T18:09:07;25.80;99.90
41168;DHT22;26906;45.658;9.272;2023-05-07T18:11:32;25.80;99.90
41168;DHT22;26906;45.658;9.272;2023-05-07T18:13:59;25.70;99.90
41168;DHT22;26906;45.658;9.272;2023-05-07T18:16:25;25.70;99.90
41168;DHT22;26906;45.658;9.272;2023-05-07T18:18:50;25.70;99.90
41168;DHT22;26906;45.658;9.272;2023-05-07T18:21:16;25.60;99.90
41168;DHT22;26906;45.658;9.272;2023-05-07T18:23:47;25.60;99.90
41168;DHT22;26906;45.658;9.272;2023-05-07T18:26:13;25.60;99.90
41168;DHT22;26906;45.658;9.272;2023-05-07T18:28:39;25.60;99.90
41168;DHT22;26906;45.658;9.272;2023-05-07T18:31:05;25.50;99.90
41168;DHT22;26906;45.658;9.272;2023-05-07T18:33:31;25.40;99.90
41168;DHT22;26906;45.658;9.272;2023-05-07T18:35:57;25.40;99.90
41168;DHT22;26906;45.658;9.272;2023-05-07T18:38:23;25.30;99.90
41168;DHT22;26906;45.658;9.272;2023-05-07T18:40:48;25.20;99.90
41168;DHT22;26906;45.658;9.272;2023-05-07T18:43:14;25.10;99.90
41168;DHT22;26906;45.658;9.272;2023-05-07T18:45:40;25.10;99.90
41168;DHT22;26906;45.658;9.272;2023-05-07T18:48:06;25.00;99.90
41168;DHT22;26906;45.658;9.272;2023-05-07T18:50:32;25.00;99.90
41168;DHT22;26906;45.658;9.272;2023-05-07T18:52:58;24.90;99.90
41168;DHT22;26906;45.658;9.272;2023-05-07T18:55:23;24.90;99.90
41168;DHT22;26906;45.658;9.272;2023-05-07T18:57:49;24.80;99.90
41168;DHT22;26906;45.658;9.272;2023-05-07T19:00:15;24.80;99.90
41168;DHT22;26906;45.658;9.272;2023-05-07T19:02:41;24.70;99.90
41168;DHT22;26906;45.658;9.272;2023-05-07T19:05:07;24.60;99.90
41168;DHT22;26906;45.658;9.272;2023-05-07T19:07:33;24.50;99.90
41168;DHT22;26906;45.658;9.272;2023-05-07T19:09:58;24.40;99.90
41168;DHT22;26906;45.658;9.272;2023-05-07T19:12:24;24.40;99.90
41168;DHT22;26906;45.658;9.272;2023-05-07T19:14:50;24.40;99.90
41168;DHT22;26906;45.658;9.272;2023-05-07T19:17:17;24.30;99.90
41168;DHT22;26906;45.658;9.272;2023-05-07T19:19:42;24.30;99.90
41168;DHT22;26906;45.658;9.272;2023-05-07T19:22:14;24.20;99.90
41168;DHT22;26906;45.658;9.272;2023-05-07T19:24:40;24.30;99.90
41168;DHT22;26906;45.658;9.272;2023-05-07T19:27:06;24.40;99.90
41168;DHT22;26906;45.658;9.272;2023-05-07T19:29:32;24.20;99.90
41168;DHT22;26906;45.658;9.272;2023-05-07T19:31:58;24.10;99.90
41168;DHT22;26906;45.658;9.272;2023-05-07T19:34:24;24.00;99.90
41168;DHT22;26906;45.658;9.272;2023-05-07T19:36:52;23.90;99.90
41168;DHT22;26906;45.658;9.272;2023-05-07T19:39:17;23.80;99.90
41168;DHT22;26906;45.658;9.272;2023-05-07T19:41:43;23.80;99.90
41168;DHT22;26906;45.658;9.272;2023-05-07T19:44:09;23.70;99.90
41168;DHT22;26906;45.658;9.272;2023-05-07T19:46:35;23.70;99.90
41168;DHT22;26906;45.658;9.272;2023-05-07T19:49:04;23.70;99.90
41168;DHT22;26906;45.658;9.272;2023-05-07T19:51:30;23.70;99.90
41168;DHT22;26906;45.658;9.272;2023-05-07T19:53:58;23.70;99.90
41168;DHT22;26906;45.658;9.272;2023-05-07T19:56:24;23.70;99.90
41168;DHT22;26906;45.658;9.272;2023-05-07T19:58:50;23.70;99.90
41168;DHT22;26906;45.658;9.272;2023-05-07T20:01:17;23.70;99.90
41168;DHT22;26906;45.658;9.272;2023-05-07T20:03:43;23.70;99.90
41168;DHT22;26906;45.658;9.272;2023-05-07T20:06:11;23.50;99.90
41168;DHT22;26906;45.658;9.272;2023-05-07T20:08:37;23.40;99.90
41168;DHT22;26906;45.658;9.272;2023-05-07T20:11:03;23.20;99.90
41168;DHT22;26906;45.658;9.272;2023-05-07T20:13:28;23.30;99.90
41168;DHT22;26906;45.658;9.272;2023-05-07T20:15:58;23.20;99.90
41168;DHT22;26906;45.658;9.272;2023-05-07T20:18:24;23.20;99.90
41168;DHT22;26906;45.658;9.272;2023-05-07T20:20:50;23.10;99.90
41168;DHT22;26906;45.658;9.272;2023-05-07T20:23:16;23.20;99.90
41168;DHT22;26906;45.658;9.272;2023-05-07T20:25:42;23.20;99.90
41168;DHT22;26906;45.658;9.272;2023-05-07T20:28:08;23.30;99.90
41168;DHT22;26906;45.658;9.272;2023-05-07T20:30:34;23.10;99.90
41168;DHT22;26906;45.658;9.272;2023-05-07T20:33:00;23.20;99.90
41168;DHT22;26906;45.658;9.272;2023-05-07T20:35:28;23.00;99.90
